Tiempo atmosférico en la estación meteorológica de Alajar, Huelva (572 m.)



Fecha
DESCASC
Temp. máxima en grados centígrados (hora)
DESCASC
Temp. mínima en grados centígrados (hora)
DESCASC
Temp. media en grados centígrados
DESCASC
Racha de viento máxima en m/sg (hora)
DESCASC
Velocidad máxima media en intervalos de 10 minutos(hora)
DESCASC
Precipitaciones diarias en mm
DESCASC
Precipitaciones de 00:00 a 06:00 en mm
DESCASC
Precipitaciones de 06:00 a 12:00 en mm
DESCASC
Precipitaciones de 12:00 a 18:00 en mm
DESCASC
Precipitaciones de 18:00 a 24:00 en mm
DESCASC
23-05-2018 23.3 (19:40) 12.2 (04:00) 17.7 9.17 (14:20) 5 (14:20) 0 0 0 0 0
22-05-2018 22.2 (18:20) 11.5 (02:10) 16.9 6.11 (17:10) 3.33 (13:00) 0 0 0 0 0
21-05-2018 20.8 (18:40) 11.7 (06:50) 16.2 8.61 (15:40) 5.56 (15:40) 12 0 0.2 8.4 3.4
20-05-2018 20.3 (11:50) 11.5 (00:00) 15.9 7.22 (07:40) 4.17 (07:40) 20 0 0 20 0
19-05-2018 24.6 (16:10) 12.1 (00:00) 18.4 9.17 (19:10) 6.11 (19:20) 0.6 0 0 0 0.6
18-05-2018 23.8 (16:20) 12 (00:00) 17.9 11.67 (18:20) 5.56 (17:10) 13.4 0 0 2.8 10.6
17-05-2018 25.7 (15:50) 11.3 (00:00) 18.5 8.06 (14:10) 4.72 (18:10) 0 0 0 0 0
16-05-2018 27.2 (15:40) 15.7 (00:00) 21.5 9.72 (18:10) 5 (01:20) 0 0 0 0 0
15-05-2018 25.6 (16:10) 13.7 (00:00) 19.7 10.83 (02:10) 7.22 (02:40) 0 0 0 0 0
14-05-2018 22.9 (16:50) 9.5 (00:00) 16.2 13.61 (17:10) 8.33 (10:30) 0 0 0 0 0
13-05-2018 19 (16:50) 5.9 (00:00) 12.5 13.06 (06:20) 7.22 (06:20) 0 0 0 0 0
12-05-2018 17.4 (16:10) 10 (00:00) 13.7 15.28 (23:20) 9.17 (03:00) 0 0 0 0 0
11-05-2018 22.5 (17:00) 9.4 (06:50) 15.9 6.94 (19:30) 3.89 (15:40) 0 0 0 0 0
10-05-2018 22.9 (16:20) 8.3 (00:00) 15.6 8.89 (03:10) 5 (02:30) 0 0 0 0 0
09-05-2018 20.2 (16:10) 11.3 (00:00) 15.8 11.39 (00:10) 7.5 (00:10) 0 0 0 0 0
08-05-2018 23.9 (15:50) 14.7 (00:00) 19.3 11.11 (03:10) 8.33 (03:10) 0 0 0 0 0
07-05-2018 23.4 (13:40) 11 (00:00) 17.2 17.78 (15:30) 10.28 (15:30) 23.2 0 0 23 0.2
06-05-2018 25.3 (15:10) 11.1 (00:00) 18.2 15 (19:40) 8.33 (19:40) 13.8 0 0 0 13.8
05-05-2018 24.5 (16:30) 10.5 (00:00) 17.5 7.22 (16:00) 4.17 (23:50) 0 0 0 0 0
04-05-2018 21 (17:40) 11.1 (00:00) 16.1 11.67 (01:50) 7.5 (02:00) 0 0 0 0 0
03-05-2018 21 (16:20) 9.1 (00:00) 15.1 11.67 (03:30) 8.33 (04:10) 0 0 0 0 0
02-05-2018 19 (16:10) 7.7 (00:00) 13.3 12.22 (02:00) 8.33 (01:10) 0 0 0 0 0
01-05-2018 16.2 (16:40) 6.1 (07:50) 11.2 11.94 (17:00) 6.94 (17:00) 0 0 0 0 0
30-04-2018 15.2 (18:40) 5.3 (00:00) 10.3 8.89 (16:00) 5 (16:30) 1.2 0 1 0.2 0
29-04-2018 14.1 (15:00) 5.6 (00:00) 9.9 11.67 (19:00) 6.11 (10:20) 1.2 0 0 1.2 0
28-04-2018 15.9 (14:50) 6.8 (00:00) 11.3 15.56 (06:00) 10.28 (06:20) 4.2 0 0 0 4.2
27-04-2018 22 (15:10) 10.8 (00:00) 16.4 10.28 (23:50) 6.67 (23:59) 0 0 0 0 0
26-04-2018 26.1 (17:00) 13.6 (00:00) 19.9 10.28 (00:30) 4.44 (06:10) 0 0 0 0 0
25-04-2018 26.9 (15:40) 13.9 (00:00) 20.4 9.72 (03:20) 6.67 (03:00) 0 0 0 0 0
24-04-2018 23.2 (17:00) 16.1 (00:00) 19.7 12.22 (02:00) 8.06 (01:10) 0 0 0 0 0

Gráficas

Temp. máximas Temp. mínimas Temp. medias Precipitaciones Rachas de viento máximas Velocidades máximas media en intervalos de 10 minutos

Datos horarios

Fecha y hora oficial Temperatura (ºC) Velocidad del viento (km/h) Dirección del viento Racha (km/h) Dirección de racha Precipitación (mm) Presión (hPa) Tendencia (hPa) Humedad (%)
2018-05-23 23:00:00 18.1 9 Norte 19 Nordeste 0 948.4 -0.1 59
2018-05-23 22:00:00 18.5 5 Nordeste 11 Nordeste 0 948.5 0.1 63
2018-05-23 21:00:00 21.1 5 Oeste 13 Sur 0 948.7 0.2 54
2018-05-23 20:00:00 22.9 6 Sudoeste 11 Noroeste 0 948.5 -0.2 46
2018-05-23 19:00:00 22.5 5 Oeste 15 Sudoeste 0 948.4 -0.5 46
2018-05-23 18:00:00 20.9 10 Sur 20 Sudoeste 0 948.5 -0.6 50
2018-05-23 17:00:00 21.8 6 Sudoeste 21 Sudoeste 0 948.7 -1.2 49
2018-05-23 16:00:00 21.5 11 Sur 22 Sudoeste 0 948.9 -0.7 58
2018-05-23 15:00:00 21.4 9 Sudeste 33 Sur 0 949.1 -0.4 57
2018-05-23 14:00:00 21.1 11 Sur 22 Sur 0 949.9 0 59
2018-05-23 13:00:00 20.9 12 Sudeste 23 Sur 0 949.6 0 56
2018-05-23 12:00:00 19.9 6 Sur 15 Sudeste 0 949.5 0.3 60
2018-05-23 11:00:00 19 9 Sur 15 Sur 0 949.9 1 62
2018-05-23 10:00:00 18.7 4 Sur 8 Sur 0 949.6 1.1 58
2018-05-23 09:00:00 15.8 5 Nordeste 8 Nordeste 0 949.2 0.7 69
2018-05-23 08:00:00 14.2 7 Nordeste 12 Nordeste 0 948.9 0.4 64
2018-05-23 07:00:00 14 8 Nordeste 13 Este 0 948.5 -0.1 61
2018-05-23 06:00:00 13.2 8 Nordeste 11 Nordeste 0 948.5 -0.4 69
2018-05-23 05:00:00 12.9 6 Nordeste 9 Nordeste 0 948.5 -0.8 70
2018-05-23 04:00:00 12.2 2 Sudoeste 9 Nordeste 0 948.6 -0.9 72
2018-05-23 03:00:00 12.6 4 Noroeste 6 Noroeste 0 948.9 -0.6 77
2018-05-23 02:00:00 12.9 5 Nordeste 10 Nordeste 0 949.3 0 76
2018-05-23 01:00:00 13.3 5 Nordeste 8 Nordeste 0 949.5 0.9 76
2018-05-23 00:00:00 13.6 0 Calma 10 Nordeste 0 949.5 1 75
2018-05-22 23:00:00 14.1 2 Oeste 8 Nordeste 0 949.3 0.9 75
2018-05-22 22:00:00 15.8 3 Nordeste 8 Oeste 0 948.6 0.4 73
2018-05-22 21:00:00 19.2 3 Oeste 15 Sudoeste 0 948.5 0.2 62
2018-05-22 20:00:00 20.8 8 Sudoeste 18 Sudoeste 0 948.4 -0.1 55
2018-05-22 19:00:00 21.4 5 Sudoeste 21 Sur 0 948.2 -0.6 53
2018-05-22 18:00:00 21.4 6 Sudoeste 22 Sudoeste 0 948.3 -0.8 54
2018-05-22 17:00:00 21.4 9 Sudoeste 20 Sudoeste 0 948.5 -0.8 55
2018-05-22 16:00:00 20.8 9 Sudoeste 21 Sur 0 948.8 -0.5 59
2018-05-22 15:00:00 19.8 12 Sudoeste 21 Sur 0 949.1 0 63
2018-05-22 14:00:00 18.2 8 Sur 19 Sudoeste 0 949.3 0.3 67
2018-05-22 13:00:00 16.5 12 Sudoeste 19 Sudoeste 0 949.3 0.6 75
2018-05-22 12:00:00 15.1 8 Sudeste 18 Sudeste 0 949.1 0.8 78
2018-05-22 11:00:00 13.1 8 Sur 17 Sur 0 949 1.1 87
2018-05-22 10:00:00 12.2 9 Sur 19 Sur 0 948.7 1.3 94
2018-05-22 09:00:00 11.8 9 Sur 18 Sur 0 948.3 1.2 96
2018-05-22 08:00:00 11.9 7 Sudeste 15 Sudeste 0 947.9 0.7 97
2018-05-22 07:00:00 11.8 7 Sudeste 15 Sudeste 0 947.4 0.1 97
2018-05-22 06:00:00 12 6 Este 9 Nordeste 0 947.1 -0.4 98
2018-05-22 05:00:00 12 6 Nordeste 11 Este 0 947.2 -0.5 99
2018-05-22 04:00:00 12 3 Nordeste 9 Nordeste 0 947.3 -0.6 98
2018-05-22 03:00:00 11.9 2 Noroeste 9 Noroeste 0 947.5 -0.5 98
2018-05-22 02:00:00 11.8 6 Nordeste 12 Nordeste 0 947.7 0.1 97
2018-05-22 01:00:00 11.9 4 Norte 14 Nordeste 0 947.9 0.6 96
2018-05-22 00:00:00 12.5 6 Nordeste 13 Nordeste 0 948 1.2 95
2018-05-21 23:00:00 13.5 7 Nordeste 12 Nordeste 0.2 947.6 1.6 95
2018-05-21 22:00:00 14.8 5 Nordeste 13 Sudoeste 3.2 947.3 1.6 95
2018-05-21 21:00:00 16.7 6 Sur 26 Sur 0 946.8 1 83
2018-05-21 20:00:00 20.4 7 Sudoeste 18 Sudoeste 0 946 0 59
2018-05-21 19:00:00 20.7 6 Sudoeste 17 Oeste 0 945.7 -1 56
2018-05-21 18:00:00 19.6 8 Sudoeste 15 Sudoeste 0 945.8 -0.9 70
2018-05-21 17:00:00 16.4 2 Sudoeste 18 Norte 0.8 946 -0.7 93
2018-05-21 16:00:00 13.1 15 Norte 31 Norte 7.6 946.7 -0.2 96
2018-05-21 15:00:00 16.8 8 Noroeste 22 Sudoeste 0 946.7 -0.2 79
2018-05-21 14:00:00 19.3 12 Sudoeste 26 Sudoeste 0 946.7 -0.2 66
2018-05-21 13:00:00 20.1 12 Sudoeste 24 Sur 0 946.9 0.2 61
2018-05-21 12:00:00 18.6 9 Sudoeste 19 Sudoeste 0 946.9 0.7 68
2018-05-21 11:00:00 16.7 6 Sudoeste 10 Sudoeste 0 946.9 0.9 76
2018-05-21 10:00:00 16.1 5 Sur 10 Sur 0.2 946.7 1 81
2018-05-21 09:00:00 13.9 0 Calma 6 Nordeste 0 946.2 0.4 91
2018-05-21 08:00:00 12.6 5 Nordeste 9 Nordeste 0 946 0.4 90
2018-05-21 07:00:00 11.8 4 Nordeste 6 Nordeste 0 945.7 -0.3 91
2018-05-21 06:00:00 12.3 3 Sur 6 Nordeste 0 945.8 -0.6 92
2018-05-21 05:00:00 12.7 4 Este 9 Nordeste 0 945.6 -1.3 91
2018-05-21 04:00:00 12.3 4 Noroeste 10 Nordeste 0 946 -1 92
2018-05-21 03:00:00 12.5 4 Norte 10 Nordeste 0 946.4 -1 90
2018-05-21 02:00:00 12.6 2 Oeste 9 Nordeste 0 946.9 -0.5 92
2018-05-21 01:00:00 13.3 0 Calma 6 Nordeste 0 947 0.1 90
2018-05-21 00:00:00 13.7 4 Oeste 6 Noroeste 0 947.4 1.1 92
2018-05-20 23:00:00 14.2 3 Norte 9 Noroeste 0 947.4 1 91
2018-05-20 22:00:00 14.2 5 Noroeste 12 Oeste 0 946.9 0.5 87
2018-05-20 21:00:00 16.2 2 Norte 10 Oeste 0 946.3 -0.3 74
2018-05-20 20:00:00 17.3 7 Sudoeste 20 Oeste 0 946.4 -0.8 69
2018-05-20 19:00:00 18.9 10 Oeste 20 Oeste 0 946.4 -0.9 68
2018-05-20 18:00:00 18 9 Oeste 19 Oeste 0 946.6 -1.4 75
2018-05-20 17:00:00 17.2 7 Sudoeste 12 Sudoeste 0 947.2 -1.7 89
2018-05-20 16:00:00 15.8 6 Noroeste 10 Oeste 0.2 947.3 -1.6 90
2018-05-20 15:00:00 14.2 4 Nordeste 18 Este 1 948 -0.4 94
2018-05-20 14:00:00 13.7 10 Este 23 Norte 18.4 948.9 0.5 94
2018-05-20 13:00:00 16.9 6 Sudeste 14 Nordeste 0.4 948.9 0.9 77
2018-05-20 12:00:00 19.7 6 Sudoeste 15 Sudoeste 0 948.4 0.1 63
2018-05-20 11:00:00 19.3 4 Sur 11 Sudoeste 0 948.4 0.2 61
2018-05-20 10:00:00 19.1 6 Sur 12 Sur 0 948 0 63
2018-05-20 09:00:00 16.6 0 Calma 14 Nordeste 0 948.3 0.2 66
2018-05-20 08:00:00 15 7 Norte 26 Norte 0 948.2 0.1 73
2018-05-20 07:00:00 14.1 9 Nordeste 18 Norte 0 948 -0.6 74
2018-05-20 06:00:00 13 5 Norte 11 Norte 0 948.1 -0.9 80
2018-05-20 05:00:00 12 5 Nordeste 9 Sudeste 0 948.1 -1.3 85
2018-05-20 04:00:00 12.1 4 Nordeste 7 Este 0 948.6 -1.3 85
2018-05-20 03:00:00 13 4 Noroeste 8 Noroeste 0 949 -1.1 81
2018-05-20 02:00:00 12.7 6 Noroeste 13 Norte 0 949.4 -0.4 83
2018-05-20 01:00:00 12.7 4 Nordeste 11 Nordeste 0 949.9 -0.3 85
2018-05-20 00:00:00 12.8 7 Nordeste 12 Nordeste 0 950.1 -0.5 89
2018-05-19 23:00:00 14 4 Norte 12 Norte 0 949.8 0.7 90
2018-05-19 22:00:00 14.8 4 Nordeste 9 Sudoeste 0.4 950.2 1.8 90
2018-05-19 21:00:00 15.8 7 Este 29 Sur 0.2 950.6 2.2 81
2018-05-19 20:00:00 19.2 12 Este 33 Nordeste 0 949.1 0.5 58
2018-05-19 19:00:00 22.5 19 Nordeste 30 Nordeste 0 948.4 -0.5 46
2018-05-19 18:00:00 21.7 12 Nordeste 24 Nordeste 0 948.4 -1.2 49
2018-05-19 17:00:00 21.3 10 Nordeste 22 Norte 0 948.6 -1.5 51
2018-05-19 16:00:00 24.4 9 Sur 19 Sur 0 948.9 -1.5 42
2018-05-19 15:00:00 22.4 7 Sudeste 23 Sur 0 949.6 -0.8 47
2018-05-19 14:00:00 22.2 12 Sur 23 Sur 0 950.1 -0.1 51
2018-05-19 13:00:00 20.6 8 Sudeste 17 Sudeste 0 950.4 0.6 55
2018-05-19 12:00:00 18.4 6 Sudeste 20 Sudeste 0 950.4 0.9 58
2018-05-19 11:00:00 19.1 6 Sudeste 22 Sudeste 0 950.2 1.1 56
2018-05-19 10:00:00 18.9 7 Este 18 Este 0 949.8 1.1 54
2018-05-19 09:00:00 16.1 7 Este 16 Sudeste 0 949.5 1 61
2018-05-19 08:00:00 14.2 5 Este 13 Este 0 949.1 0.4 79
2018-05-19 07:00:00 12.7 6 Nordeste 12 Este 0 948.7 -0.2 86
2018-05-19 06:00:00 12.8 6 Este 13 Este 0 948.5 -0.7 84
2018-05-19 05:00:00 12.2 7 Nordeste 11 Nordeste 0 948.7 -0.7 85
2018-05-19 04:00:00 13.1 5 Nordeste 8 Nordeste 0 948.9 -0.4 80
2018-05-19 03:00:00 12.7 4 Norte 13 Nordeste 0 949.2 -0.3 87
2018-05-19 02:00:00 13.2 4 Nordeste 10 Nordeste 0 949.4 -0.3 82
2018-05-19 01:00:00 13.1 7 Nordeste 10 Nordeste 0 949.3 0.5 84
2018-05-19 00:00:00 13.7 4 Nordeste 20 Este 0 949.5 1.2 84
2018-05-18 23:00:00 14.3 5 Este 14 Este 0 949.7 1.4 86
2018-05-18 22:00:00 14.5 5 Nordeste 12 Este 0 948.8 0.8 92
2018-05-18 21:00:00 14.6 6 Nordeste 14 Este 0 948.3 0 90
2018-05-18 20:00:00 14.4 8 Nordeste 13 Este 0 948.3 1.1 92
2018-05-18 19:00:00 14.4 9 Sudeste 42 Este 10.6 948 0.3 92
2018-05-18 18:00:00 16.4 10 Sudeste 30 Sur 2.8 948.3 0 79
2018-05-18 17:00:00 23.7 15 Sudoeste 28 Sudoeste 0 947.2 -1.8 49
2018-05-18 16:00:00 23.1 14 Sudoeste 27 Sudoeste 0 947.7 -1.6 48
2018-05-18 15:00:00 21.7 10 Sudoeste 21 Sudoeste 0 948.3 -1 51
2018-05-18 14:00:00 21.2 10 Sudoeste 20 Sudoeste 0 949 -0.2 49
2018-05-18 13:00:00 20.1 9 Sudoeste 19 Sudoeste 0 949.3 0.3 54
2018-05-18 12:00:00 20.3 10 Sudoeste 21 Sudoeste 0 949.3 0.5 53
2018-05-18 11:00:00 19.1 6 Sudoeste 14 Sudoeste 0 949.2 0.8 57
2018-05-18 10:00:00 17.3 4 Sur 9 Sudeste 0 949 1 65
2018-05-18 09:00:00 14.1 0 Calma 5 Este 0 948.8 1.1 87
2018-05-18 08:00:00 12.4 2 Norte 8 Este 0 948.4 0.4 91
2018-05-18 07:00:00 12.1 4 Noroeste 13 Noroeste 0 948 -0.2 92
2018-05-18 06:00:00 12.5 6 Noroeste 15 Oeste 0 947.7 -0.9 93
2018-05-18 05:00:00 12.9 4 Noroeste 10 Oeste 0 948 -0.7 93
2018-05-18 04:00:00 12.8 6 Noroeste 14 Noroeste 0 948.2 -0.5 92
2018-05-18 03:00:00 13.1 4 Oeste 13 Noroeste 0 948.6 -0.2 91
2018-05-18 02:00:00 13.7 4 Oeste 22 Noroeste 0 948.7 0 85
2018-05-18 01:00:00 14.5 10 Noroeste 20 Noroeste 0 948.7 0.6 81
2018-05-18 00:00:00 14.6 9 Noroeste 22 Noroeste 0 948.8 1.2 83
2018-05-17 23:00:00 14.2 6 Noroeste 13 Oeste 0 948.7 1.7 85
2018-05-17 22:00:00 15.7 8 Oeste 19 Sudoeste 0 948.1 1.3 76
2018-05-17 21:00:00 17.9 13 Sudoeste 27 Oeste 0 947.6 1.5 64
2018-05-17 20:00:00 20 10 Oeste 21 Oeste 0 947 0.9 54
2018-05-17 19:00:00 21 12 Oeste 29 Sur 0 946.8 0.3 54
2018-05-17 18:00:00 23 14 Sur 23 Sur 0 946.1 -0.5 44
2018-05-17 17:00:00 24.4 13 Sudoeste 19 Sur 0 946.1 -0.8 39
2018-05-17 16:00:00 24.6 5 Nordeste 19 Norte 0 946.5 -0.6 37
2018-05-17 15:00:00 25.2 7 Nordeste 29 Norte 0 946.6 -0.5 34
2018-05-17 14:00:00 23.3 13 Nordeste 25 Nordeste 0 946.9 0 39
2018-05-17 13:00:00 23.5 7 Sudeste 23 Sur 0 947.1 0.4 41
2018-05-17 12:00:00 22.2 8 Sudoeste 17 Sudoeste 0 947.1 0.3 44
2018-05-17 11:00:00 20.6 9 Sudoeste 14 Sudoeste 0 946.9 0.4 47
2018-05-17 10:00:00 19.3 6 Sudoeste 10 Sudoeste 0 946.7 0.7 47
2018-05-17 09:00:00 16 2 Sur 8 Oeste 0 946.8 0.7 62
2018-05-17 08:00:00 12.3 2 Oeste 7 Oeste 0 946.5 0.3 72
2018-05-17 07:00:00 11.5 4 Norte 11 Norte 0 946 -0.5 80
2018-05-17 06:00:00 12.6 8 Noroeste 15 Noroeste 0 946.1 -0.2 76
2018-05-17 05:00:00 13 8 Noroeste 17 Noroeste 0 946.2 -0.1 73
2018-05-17 04:00:00 13.5 9 Noroeste 18 Noroeste 0 946.5 0.2 71
2018-05-17 03:00:00 13.7 8 Noroeste 14 Noroeste 0 946.3 -0.1 64
2018-05-17 02:00:00 14.5 5 Oeste 8 Oeste 0 946.3 0.3 64
2018-05-17 01:00:00 15 4 Oeste 9 Nordeste 0 946.3 1.1 66
2018-05-17 00:00:00 16.3 4 Noroeste 12 Oeste 0 946.4 1.5 61
2018-05-16 23:00:00 18.8 6 Oeste 15 Oeste 0 946 1.4 52
2018-05-16 22:00:00 19.7 3 Nordeste 9 Nordeste 0 945.2 0.3 46
2018-05-16 21:00:00 21.8 8 Nordeste 12 Sur 0 944.9 0 41
2018-05-16 20:00:00 25 4 Sur 17 Sudeste 0 944.6 -0.5 32
2018-05-16 19:00:00 24.4 5 Este 35 Sudeste 0 944.9 -0.7 34
2018-05-16 18:00:00 26.3 12 Sudeste 25 Sudeste 0 944.9 -1.2 29
2018-05-16 17:00:00 25.4 11 Sudeste 29 Sudeste 0 945.1 -1.5 31
2018-05-16 16:00:00 25.6 11 Nordeste 34 Sudeste 0 945.6 -1.4 31
2018-05-16 15:00:00 26.4 14 Sudeste 29 Sudeste 0 946.1 -0.9 29
2018-05-16 14:00:00 25.8 12 Sudeste 33 Sudeste 0 946.6 -0.4 32
2018-05-16 13:00:00 24.5 13 Sudeste 33 Sudeste 0 947 0.1 32
2018-05-16 12:00:00 23.8 14 Sudeste 30 Sudeste 0 947 0.1 32
2018-05-16 11:00:00 23.3 10 Sudeste 20 Sudeste 0 947 0 34
2018-05-16 10:00:00 21.6 11 Sudeste 23 Sudeste 0 946.9 0.1 37
2018-05-16 09:00:00 19.6 10 Este 18 Este 0 946.9 0.1 40
2018-05-16 08:00:00 16.4 7 Este 15 Nordeste 0 947 0 47
2018-05-16 07:00:00 17 10 Este 20 Este 0 946.8 -0.7 42
2018-05-16 06:00:00 17.4 12 Este 22 Nordeste 0 946.8 -1 40
2018-05-16 05:00:00 17 9 Nordeste 25 Este 0 947 -1.5 41
2018-05-16 04:00:00 17.4 9 Este 28 Nordeste 0 947.5 -1.4 40
2018-05-16 03:00:00 17.7 16 Nordeste 27 Nordeste 0 947.8 -1.2 41
2018-05-16 02:00:00 17.4 15 Nordeste 27 Nordeste 0 948.5 -0.3 42
2018-05-16 01:00:00 16.5 15 Nordeste 22 Norte 0 948.9 0.5 44
2018-05-16 00:00:00 16.1 9 Nordeste 16 Nordeste 0 949 0.7 45
2018-05-15 23:00:00 17 14 Norte 23 Nordeste 0 948.8 1 42
2018-05-15 22:00:00 17.8 15 Nordeste 18 Nordeste 0 948.4 0.5 41
2018-05-15 21:00:00 20.7 10 Nordeste 21 Nordeste 0 948.3 0 34
2018-05-15 20:00:00 23.7 12 Nordeste 22 Nordeste 0 947.8 -0.7 27
2018-05-15 19:00:00 24.7 9 Este 28 Norte 0 947.9 -1.3 26
2018-05-15 18:00:00 24.6 11 Este 25 Nordeste 0 948.3 -1.4 28
2018-05-15 17:00:00 25.5 8 Este 23 Nordeste 0 948.5 -1.7 29
2018-05-15 16:00:00 24.9 10 Este 26 Sudeste 0 949.2 -1.4 32
2018-05-15 15:00:00 24.4 15 Sudeste 28 Este 0 949.7 -1.1 30
2018-05-15 14:00:00 23 11 Este 28 Sudeste 0 950.2 -0.7 32
2018-05-15 13:00:00 22.5 12 Sudeste 32 Sur 0 950.6 -0.3 31
2018-05-15 12:00:00 21.3 12 Sudeste 31 Sudeste 0 950.8 0 34
2018-05-15 11:00:00 19.8 13 Sudeste 28 Sudeste 0 950.9 0.3 36
2018-05-15 10:00:00 18.1 12 Este 27 Nordeste 0 950.9 0.8 41
2018-05-15 09:00:00 16.5 10 Este 22 Nordeste 0 950.8 1 46
2018-05-15 08:00:00 14.8 10 Nordeste 21 Este 0 950.6 0.7 48
2018-05-15 07:00:00 13.9 5 Este 29 Nordeste 0 950.1 0.1 51
2018-05-15 06:00:00 14.4 18 Nordeste 34 Norte 0 949.8 -0.6 52
2018-05-15 05:00:00 15.3 13 Nordeste 31 Este 0 949.9 -0.8 49
2018-05-15 04:00:00 15 8 Nordeste 26 Nordeste 0 950 -0.9 54
2018-05-15 03:00:00 15 20 Nordeste 39 Nordeste 0 950.4 -0.7 57
2018-05-15 02:00:00 15.4 22 Nordeste 36 Nordeste 0 950.7 -0.4 56
2018-05-15 01:00:00 15.3 23 Nordeste 34 Nordeste 0 950.9 0.2 57
2018-05-15 00:00:00 15.8 19 Nordeste 27 Nordeste 0 951.1 0.8 54
2018-05-14 23:00:00 15.9 15 Nordeste 22 Nordeste 0 951.1 0.8 54
2018-05-14 22:00:00 16.9 7 Nordeste 19 Norte 0 950.7 0.3 51
2018-05-14 21:00:00 18.8 6 Nordeste 26 Norte 0 950.3 -0.1 47
2018-05-14 20:00:00 19.4 8 Nordeste 35 Nordeste 0 950.3 -0.3 46
2018-05-14 19:00:00 21.1 12 Nordeste 40 Norte 0 950.4 -0.7 42
2018-05-14 18:00:00 21.8 14 Norte 49 Norte 0 950.4 -1.2 41
2018-05-14 17:00:00 21.4 22 Norte 41 Nordeste 0 950.6 -1.4 41
2018-05-14 16:00:00 21.8 21 Nordeste 46 Nordeste 0 951.1 -1.5 42
2018-05-14 15:00:00 21.6 18 Norte 47 Norte 0 951.6 -1.1 41
2018-05-14 14:00:00 20.4 20 Nordeste 41 Nordeste 0 952 -0.8 41
2018-05-14 13:00:00 19.7 13 Nordeste 34 Norte 0 952.6 0.1 47
2018-05-14 12:00:00 18.3 10 Nordeste 39 Nordeste 0 952.7 -0.1 49
2018-05-14 11:00:00 16.5 21 Nordeste 48 Norte 0 952.8 0.3 50
2018-05-14 10:00:00 14.2 25 Nordeste 46 Nordeste 0 952.5 -0.1 54
2018-05-14 09:00:00 11.7 12 Nordeste 40 Nordeste 0 952.8 0.2 62
2018-05-14 08:00:00 10.6 18 Nordeste 31 Norte 0 952.5 -0.4 64
2018-05-14 07:00:00 9.5 5 Nordeste 28 Norte 0 952.6 -0.3 70
2018-05-14 06:00:00 9.8 8 Nordeste 29 Este 0 952.6 -1 69
2018-05-14 05:00:00 10.7 5 Sudeste 37 Nordeste 0 952.9 -1.1 63
2018-05-14 04:00:00 11.3 19 Nordeste 36 Nordeste 0 952.9 -1.5 61
2018-05-14 03:00:00 11.8 15 Nordeste 35 Nordeste 0 953.6 -0.9 58
2018-05-14 02:00:00 12.7 12 Norte 24 Norte 0 954 -0.3 53
2018-05-14 01:00:00 12.4 8 Norte 21 Norte 0 954.4 0.6 57
2018-05-11 20:00:00 20.8 10 Sudoeste 25 Sudoeste 0 951 -0.6 49
2018-05-11 19:00:00 21.5 12 Sudoeste 22 Oeste 0 951 -1 47
2018-05-11 18:00:00 22.1 9 Oeste 22 Sudoeste 0 951.3 -0.8 47
2018-05-11 17:00:00 22.2 12 Sudoeste 22 Sudoeste 0 951.6 -0.8 47
2018-05-11 16:00:00 21.9 12 Sudoeste 24 Sudoeste 0 952 -0.3 49
2018-05-11 15:00:00 21.3 12 Sudoeste 21 Sudoeste 0 952.1 -0.3 52
2018-05-11 14:00:00 20 9 Sudeste 18 Sur 0 952.4 0.2 53
2018-05-11 13:00:00 19.2 9 Sur 21 Sudeste 0 952.3 0.3 58
2018-05-11 12:00:00 17.9 9 Sur 20 Sur 0 952.4 1 65
2018-05-11 11:00:00 16.4 10 Sur 19 Sur 0 952.2 0.9 70
2018-05-11 10:00:00 15 6 Sur 13 Sur 0 952 1.2 75
2018-05-11 09:00:00 12.6 3 Sur 8 Sudeste 0 951.4 0.9 86
2018-05-11 08:00:00 9.9 4 Norte 10 Nordeste 0 951.3 1.1 94
2018-05-11 07:00:00 9.8 2 Nordeste 10 Nordeste 0 950.8 0.2 94
2018-05-11 06:00:00 9.6 4 Nordeste 12 Nordeste 0 950.5 -0.1 93
2018-05-11 05:00:00 10 8 Nordeste 12 Nordeste 0 950.2 -0.9 92
2018-05-11 04:00:00 9.8 4 Norte 9 Nordeste 0 950.6 -0.7 92
2018-05-11 03:00:00 10.8 9 Nordeste 12 Nordeste 0 950.6 -0.8 88
2018-05-11 02:00:00 10.8 4 Noroeste 11 Nordeste 0 951.1 0.1 93
2018-05-11 01:00:00 11.3 6 Nordeste 10 Nordeste 0 951.3 0.8 92
2018-05-11 00:00:00 11.6 5 Norte 6 Norte 0 951.4 1.7 91
2018-05-10 23:00:00 13 3 Noroeste 7 Oeste 0 951 2 85
2018-05-10 22:00:00 14.2 4 Noroeste 12 Oeste 0 950.5 1.6 80
2018-05-10 21:00:00 16.5 8 Sudoeste 19 Sudoeste 0 949.7 0.9 70
2018-05-10 20:00:00 19.3 10 Sudoeste 24 Oeste 0 949 0.2 58
2018-05-10 19:00:00 21.5 11 Sudoeste 28 Sudoeste 0 948.9 0.1 50
2018-05-10 18:00:00 22.7 11 Sudoeste 22 Sudoeste 0 948.8 -0.3 38
2018-05-10 17:00:00 22.1 6 Sudeste 19 Sur 0 948.8 -0.2 37
2018-05-10 16:00:00 22.4 11 Sudoeste 19 Sudoeste 0 948.8 -0.4 42
2018-05-10 15:00:00 21.3 6 Sur 18 Sur 0 949.1 0.3 46
2018-05-10 14:00:00 20.1 8 Sudeste 22 Sudeste 0 949 0.3 48
2018-05-10 13:00:00 19.2 8 Sur 18 Sur 0 949.2 1 45
2018-05-10 12:00:00 17.6 9 Sur 18 Sudeste 0 948.8 0.7 57
2018-05-10 11:00:00 15.7 8 Sur 15 Sur 0 948.7 1 64
2018-05-10 10:00:00 13.8 8 Sudeste 17 Sudeste 0 948.2 0.8 71
2018-05-10 09:00:00 10 0 Calma 7 Noroeste 0 948.1 0.9 84
2018-05-10 08:00:00 8.5 3 Norte 9 Nordeste 0 947.7 0.3 87
2018-05-10 07:00:00 8.9 6 Nordeste 14 Norte 0 947.4 0.1 86
2018-05-10 06:00:00 9.2 3 Noroeste 16 Norte 0 947.2 -0.3 88
2018-05-10 05:00:00 9.8 8 Norte 24 Norte 0 947.4 -0.5 85
2018-05-10 04:00:00 10.4 12 Norte 32 Norte 0 947.3 -0.8 84
2018-05-10 03:00:00 10.8 11 Norte 29 Norte 0 947.5 -0.9 89
2018-05-10 02:00:00 11.8 8 Nordeste 14 Nordeste 0 947.9 -0.9 90
2018-05-10 01:00:00 13.1 3 Oeste 20 Oeste 0 948.1 -0.1 85
2018-05-10 00:00:00 13.9 6 Norte 19 Norte 0 948.4 0.8 86
2018-05-09 23:00:00 14.6 6 Oeste 14 Oeste 0 948.8 1.7 84
2018-05-09 22:00:00 14.8 5 Oeste 23 Noroeste 0 948.2 1.1 83
2018-05-09 21:00:00 14.8 18 Norte 32 Norte 0 947.6 0.3 81
2018-05-09 20:00:00 16.1 18 Norte 29 Norte 0 947.1 -0.3 80
2018-05-09 19:00:00 18.4 14 Sudoeste 23 Sudoeste 0 947.1 -0.8 72
2018-05-09 18:00:00 18.7 12 Sudoeste 23 Sudoeste 0 947.3 -0.7 71
2018-05-09 17:00:00 19.5 12 Sudoeste 21 Sudoeste 0 947.4 -0.8 68
2018-05-09 16:00:00 20 9 Sudoeste 21 Sudoeste 0 947.9 -0.3 69
2018-05-09 15:00:00 18.2 9 Sudoeste 17 Sudoeste 0 948 0 74
2018-05-09 14:00:00 17.3 10 Sudoeste 17 Sudoeste 0 948.2 0.4 78
2018-05-09 13:00:00 15.6 5 Sudoeste 12 Sudoeste 0 948.2 0.6 90
2018-05-09 12:00:00 14.9 6 Sudoeste 12 Sudoeste 0 948 1 94
2018-05-09 11:00:00 14.5 5 Sudoeste 8 Sudoeste 0 947.8 1.4 96
2018-05-09 10:00:00 14 2 Este 9 Sudeste 0 947.6 1.6 96
2018-05-09 09:00:00 13.6 5 Sudoeste 10 Sudoeste 0 947 1.2 91
2018-05-09 08:00:00 11.8 3 Nordeste 8 Este 0 946.4 0.5 94
2018-05-09 07:00:00 11.6 4 Oeste 11 Oeste 0 946 -0.5 93
2018-05-09 06:00:00 12.6 4 Noroeste 8 Oeste 0 945.8 -1.2 93
2018-05-09 05:00:00 12.9 5 Nordeste 11 Nordeste 0 945.9 -0.8 89
2018-05-09 04:00:00 13.6 3 Sur 7 Nordeste 0 946.5 -0.2 91
2018-05-09 03:00:00 14.4 6 Nordeste 10 Nordeste 0 947 0.1 88
2018-05-09 02:00:00 16 6 Este 38 Norte 0 946.7 -0.8 79
2018-05-09 01:00:00 16.3 20 Norte 41 Nordeste 0 946.7 -0.2 79
2018-05-09 00:00:00 17.1 24 Norte 37 Norte 0 946.9 0.4 85
2018-05-08 23:00:00 18 7 Este 19 Norte 0 947.5 1.5 74
2018-05-08 22:00:00 18.7 4 Nordeste 16 Noroeste 0 946.9 0.7 71
2018-05-08 21:00:00 20.1 8 Norte 21 Noroeste 0 946.5 0 67
2018-05-08 20:00:00 21.2 12 Norte 27 Norte 0 946 -0.4 64
2018-05-08 19:00:00 23.1 12 Noroeste 27 Noroeste 0 946.2 -0.5 57
2018-05-08 18:00:00 23.2 9 Oeste 23 Noroeste 0 946.5 -0.4 52
2018-05-08 17:00:00 20.3 18 Noroeste 32 Norte 0 946.4 -1.3 67
2018-05-08 16:00:00 23.6 14 Noroeste 31 Oeste 0 946.7 -1.3 59
2018-05-08 15:00:00 23.6 8 Sudoeste 21 Noroeste 0 946.9 -1.3 56
2018-05-08 14:00:00 21 9 Oeste 22 Sudoeste 0 947.7 -0.3 66
2018-05-08 13:00:00 22.1 8 Sudoeste 18 Sur 0 948 0 59
2018-05-08 12:00:00 21.2 11 Sudoeste 18 Sur 0 948.2 0.3 66
2018-05-08 11:00:00 19.5 4 Sudoeste 12 Sur 0 948 0.4 68
2018-05-08 10:00:00 15.9 4 Sudoeste 35 Nordeste 0 948 0.6 84
2018-05-08 09:00:00 15 21 Norte 32 Norte 0 947.9 0.6 83
2018-05-08 08:00:00 15.1 9 Norte 23 Noroeste 0 947.6 0.2 80
2018-05-08 07:00:00 15.4 4 Nordeste 23 Norte 0 947.4 0.1 77
2018-05-08 06:00:00 15.7 7 Norte 17 Noroeste 0 947.3 -0.3 77
2018-05-08 05:00:00 15.8 10 Norte 30 Nordeste 0 947.4 -0.8 75
2018-05-08 04:00:00 16.2 22 Norte 40 Norte 0 947.3 -1.1 72
2018-05-08 03:00:00 16.4 28 Norte 38 Norte 0 947.6 -1.2 71
2018-05-08 02:00:00 16.4 27 Norte 39 Nordeste 0 948.2 -0.6 70
2018-05-08 01:00:00 16.4 26 Norte 36 Nordeste 0 948.4 -0.1 72
2018-05-08 00:00:00 16.2 20 Nordeste 32 Nordeste 0 948.8 0.7 77
2018-05-07 23:00:00 15.3 5 Norte 19 Noroeste 0 948.8 0.8 78
2018-05-07 22:00:00 17.1 10 Noroeste 23 Noroeste 0 948.5 0.6 66
2018-05-07 21:00:00 17.8 16 Noroeste 24 Noroeste 0 948.1 -0.4 67
2018-05-07 20:00:00 17.6 10 Norte 18 Norte 0 948 -0.8 72
2018-05-07 19:00:00 17.4 8 Noroeste 23 Norte 0.2 947.9 -0.7 78
2018-05-07 18:00:00 14.3 12 Norte 22 Norte 0.2 948.5 -0.4 92
2018-05-07 17:00:00 14.4 6 Norte 12 Nordeste 0.2 948.8 -0.3 98
2018-05-07 16:00:00 12.1 5 Noroeste 64 Norte 22.6 948.6 -0.9 98
2018-05-07 15:00:00 18 20 Norte 31 Norte 0 948.9 -0.7 67
2018-05-07 14:00:00 23.3 13 Sudoeste 25 Sur 0 949.1 -0.1 48
2018-05-07 13:00:00 21.8 10 Sur 22 Sudoeste 0 949.5 0.5 55
2018-05-07 12:00:00 21.1 9 Sudoeste 19 Sudoeste 0 949.6 0.7 57
2018-05-07 11:00:00 20.2 10 Sur 15 Sur 0 949.2 0.6 56
2018-05-07 10:00:00 19.1 6 Sudeste 14 Este 0 949 0.7 57
2018-05-07 09:00:00 15.7 7 Este 17 Este 0 948.9 0.8 63
2018-05-07 08:00:00 12.9 10 Este 14 Este 0 948.6 0.6 71
2018-05-07 07:00:00 13 7 Nordeste 11 Este 0 948.3 0.2 80
2018-05-07 06:00:00 12.3 8 Este 15 Este 0 948.1 -0.1 79
2018-05-07 05:00:00 12.6 9 Este 15 Este 0 948 -0.7 82
2018-05-07 04:00:00 12.8 8 Nordeste 12 Este 0 948.1 -0.4 85
2018-05-07 03:00:00 13.2 6 Nordeste 9 Nordeste 0 948.2 -0.5 82
2018-05-07 02:00:00 13.3 4 Norte 12 Nordeste 0 948.7 0.6 83
2018-05-07 01:00:00 13.8 7 Nordeste 12 Norte 0 948.5 -0.3 80
2018-05-07 00:00:00 13.6 7 Nordeste 14 Norte 0 948.7 0.3 84
2018-05-06 23:00:00 13.1 3 Nordeste 15 Nordeste 0 948.1 -0.1 95
2018-05-06 22:00:00 12.9 8 Nordeste 16 Nordeste 0.8 948.8 1.9 96
2018-05-06 21:00:00 12.8 5 Norte 14 Nordeste 1.4 948.4 1.5 98
2018-05-06 20:00:00 11.6 7 Norte 54 Norte 11.6 948.2 1.2 96
2018-05-06 19:00:00 17.3 29 Norte 41 Norte 0 946.9 -0.7 66
2018-05-06 18:00:00 22.2 6 Este 20 Sur 0 946.9 -1.3 45
2018-05-06 17:00:00 23.8 10 Sudeste 22 Sudeste 0 947 -1.8 41
2018-05-06 16:00:00 23.7 10 Sudeste 26 Sur 0 947.6 -1.7 40
2018-05-06 15:00:00 24.7 8 Sudeste 23 Sudeste 0 948.2 -1.5 40
2018-05-06 14:00:00 23.8 10 Sur 23 Sur 0 948.8 -0.6 42
2018-05-06 13:00:00 22.2 11 Sudeste 26 Sudeste 0 949.3 0.1 44
2018-05-06 12:00:00 20.8 14 Sudeste 31 Sudeste 0 949.7 1 47
2018-05-06 11:00:00 20.1 16 Sudeste 27 Sudeste 0 949.4 1 49
2018-05-06 10:00:00 19.6 10 Sudeste 17 Sudeste 0 949.2 1.2 48
2018-05-06 09:00:00 16.8 5 Sudeste 13 Este 0 948.7 0.9 56
2018-05-06 08:00:00 15 4 Nordeste 8 Nordeste 0 948.4 0.5 56
2018-05-06 07:00:00 15.4 2 Sur 12 Este 0 948 -0.3 53
2018-05-06 06:00:00 16 8 Nordeste 20 Nordeste 0 947.8 -0.7 52
2018-05-06 05:00:00 16.5 12 Nordeste 26 Nordeste 0 947.9 -0.9 50
2018-05-06 04:00:00 15.9 9 Nordeste 18 Nordeste 0 948.3 -0.6 53
2018-05-06 03:00:00 16 12 Nordeste 23 Nordeste 0 948.5 -0.4 55
2018-05-06 02:00:00 16.3 17 Nordeste 26 Nordeste 0 948.8 -0.2 57
2018-05-06 01:00:00 16.5 17 Norte 24 Nordeste 0 948.9 0.4 60
2018-05-06 00:00:00 16.4 15 Norte 19 Norte 0 948.9 0.7 61
2018-05-05 23:00:00 16.2 8 Nordeste 13 Nordeste 0 949 0.8 65
2018-05-05 22:00:00 18.2 3 Norte 10 Norte 0 948.5 0.3 58
2018-05-05 21:00:00 19.7 7 Norte 9 Noroeste 0 948.2 0.1 54
2018-05-05 20:00:00 21.6 6 Noroeste 10 Noroeste 0 948.2 0 41
2018-05-05 19:00:00 22.9 5 Sur 18 Sur 0 948.2 -0.5 35
2018-05-05 18:00:00 23.1 5 Sudeste 16 Sudeste 0 948.1 -0.9 35
2018-05-05 17:00:00 23.7 9 Sudeste 23 Sudoeste 0 948.2 -1 34
2018-05-05 16:00:00 22.5 10 Sudeste 26 Sur 0 948.7 -0.7 39
2018-05-05 15:00:00 23.6 9 Sudeste 22 Sur 0 949 -0.6 37
2018-05-05 14:00:00 23 5 Este 21 Sur 0 949.2 -0.3 42
2018-05-05 13:00:00 21.3 7 Sudoeste 21 Sur 0 949.4 0.3 49
2018-05-05 12:00:00 20.1 9 Sur 17 Sudeste 0 949.6 0.6 56
2018-05-05 11:00:00 18.7 8 Sur 14 Sudeste 0 949.5 0.9 61
2018-05-05 10:00:00 17.1 4 Sur 10 Sur 0 949.1 1.1 66
2018-05-05 09:00:00 13.2 0 Calma 8 Nordeste 0 949 1.1 78
2018-05-05 08:00:00 11 2 Sudoeste 8 Nordeste 0 948.6 0.7 81
2018-05-05 07:00:00 11.2 2 Sudeste 11 Nordeste 0 948 -0.2 80
2018-05-05 06:00:00 11.3 3 Sudoeste 10 Nordeste 0 947.9 -0.5 82
2018-05-05 05:00:00 11.3 3 Nordeste 12 Nordeste 0 947.9 -0.5 84
2018-05-05 04:00:00 10.7 3 Norte 8 Nordeste 0 948.2 -0.1 77
2018-05-05 03:00:00 11.1 2 Oeste 8 Nordeste 0 948.4 0 71
2018-05-05 02:00:00 11.3 6 Nordeste 10 Nordeste 0 948.4 0.2 70
2018-05-05 01:00:00 10.5 4 Norte 9 Nordeste 0 948.3 0.5 83
2018-05-05 00:00:00 11.1 3 Este 12 Nordeste 0 948.4 1.9 83
2018-05-04 23:00:00 12.7 6 Nordeste 12 Sudoeste 0 948.2 2.2 79
2018-05-04 22:00:00 15.7 8 Sur 19 Sudoeste 0 947.8 1.9 66
2018-05-04 21:00:00 18.1 4 Sudeste 5 Sudeste 0 946.5 0.9 59
2018-05-04 20:00:00 18.7 4 Sur 15 Sur 0 946 0.5 53
2018-05-04 19:00:00 19.9 6 Este 16 Este 0 945.9 0.2 45
2018-05-04 18:00:00 19.8 6 Nordeste 13 Nordeste 0 945.6 -0.1 45
2018-05-04 17:00:00 19.9 4 Sudeste 12 Oeste 0 945.5 -0.3 43
2018-05-04 16:00:00 19.4 8 Noroeste 14 Sudoeste 0 945.7 -0.2 46
2018-05-04 15:00:00 19.1 6 Sur 18 Sudoeste 0 945.7 0 45
2018-05-04 14:00:00 19 6 Este 16 Este 0 945.8 0 44
2018-05-04 13:00:00 19.2 8 Sudoeste 22 Sur 0 945.9 0.4 45
2018-05-04 12:00:00 19.6 9 Sur 19 Sudeste 0 945.7 0.4 45
2018-05-04 11:00:00 18 13 Sudeste 23 Sudeste 0 945.8 0.9 46
2018-05-04 10:00:00 17.6 9 Sudeste 21 Sudeste 0 945.5 0.8 50
2018-05-04 09:00:00 13.6 2 Norte 7 Nordeste 0 945.3 0.5 59
2018-05-04 08:00:00 11.7 7 Nordeste 11 Norte 0 944.9 -0.3 56
2018-05-04 07:00:00 11.5 9 Nordeste 23 Nordeste 0 944.7 -0.8 56
2018-05-04 06:00:00 11.9 11 Norte 26 Nordeste 0 944.8 -1.2 56
2018-05-04 05:00:00 12.2 9 Norte 31 Norte 0 945.2 -1 61
2018-05-04 04:00:00 12.6 21 Norte 30 Nordeste 0 945.5 -1.2 64
2018-05-04 03:00:00 13.1 22 Nordeste 36 Nordeste 0 946 -1.3 62
2018-05-04 02:00:00 13 27 Nordeste 42 Nordeste 0 946.2 -1 77
2018-05-04 01:00:00 14 22 Norte 37 Nordeste 0 946.7 0.1 72
2018-05-04 00:00:00 15.1 19 Norte 29 Norte 0 947.3 0.9 64
2018-05-03 23:00:00 15.5 14 Norte 25 Norte 0 947.2 1.2 61
2018-05-03 22:00:00 16.2 8 Norte 28 Norte 0 946.6 0.2 60
2018-05-03 21:00:00 17 12 Norte 32 Nordeste 0 946.4 -0.1 57
2018-05-03 20:00:00 18.9 17 Norte 35 Norte 0 946 -1.1 49
2018-05-03 19:00:00 18.8 20 Norte 41 Norte 0 946.4 -1.1 50
2018-05-03 18:00:00 19.7 14 Nordeste 37 Noroeste 0 946.5 -1.5 45
2018-05-03 17:00:00 18.8 14 Norte 35 Nordeste 0 947.1 -1.7 50
2018-05-03 16:00:00 19.8 9 Nordeste 24 Nordeste 0 947.5 -1.6 47
2018-05-03 15:00:00 18.9 9 Norte 23 Nordeste 0 948 -1.4 47
2018-05-03 14:00:00 18.4 12 Norte 28 Norte 0 948.8 -0.5 49
2018-05-03 13:00:00 18 16 Norte 31 Norte 0 949.1 0 55
2018-05-03 12:00:00 17.8 5 Nordeste 30 Nordeste 0 949.4 0.1 53
2018-05-03 11:00:00 16 11 Norte 41 Norte 0 949.3 0.4 59
2018-05-03 10:00:00 14.1 24 Nordeste 39 Norte 0 949.1 0.4 64
2018-05-03 09:00:00 12.3 6 Nordeste 33 Nordeste 0 949.3 0.2 69
2018-05-03 08:00:00 10.8 22 Norte 36 Norte 0 948.9 -0.5 72
2018-05-03 07:00:00 9.8 23 Norte 39 Nordeste 0 948.7 -0.9 79
2018-05-03 06:00:00 9.3 24 Nordeste 40 Norte 0 949.1 -1 82
2018-05-03 05:00:00 9.4 27 Norte 42 Norte 0 949.4 -1.3 83
2018-05-03 04:00:00 9.3 29 Norte 42 Nordeste 0 949.6 -1.2 86
2018-05-03 03:00:00 9.6 26 Norte 36 Norte 0 950.1 -0.7 83
2018-05-03 02:00:00 9.6 25 Norte 38 Norte 0 950.7 0.1 85
2018-05-03 01:00:00 9.8 26 Norte 39 Norte 0 950.8 0.7 84
2018-05-03 00:00:00 10.3 25 Norte 39 Nordeste 0 950.8 1.1 81
2018-05-02 23:00:00 11 22 Norte 37 Nordeste 0 950.6 1.1 72
2018-05-02 22:00:00 12.1 20 Norte 35 Nordeste 0 950.1 0.6 66
2018-05-02 21:00:00 13.2 17 Norte 31 Norte 0 949.7 0.2 56
2018-05-02 20:00:00 14.4 17 Norte 32 Norte 0 949.5 0 40
2018-05-02 19:00:00 16 15 Norte 24 Norte 0 949.5 -0.3 40
2018-05-02 18:00:00 16.4 16 Norte 29 Noroeste 0 949.5 -0.5 39
2018-05-02 17:00:00 18.2 7 Oeste 29 Sudoeste 0 949.5 -0.8 29
2018-05-02 16:00:00 18.8 10 Sudoeste 27 Sudoeste 0 949.8 -0.8 32
2018-05-02 15:00:00 17.4 18 Sudoeste 30 Oeste 0 950 -0.7 30
2018-05-02 14:00:00 16.8 14 Sudoeste 30 Sudoeste 0 950.3 -0.4 35
2018-05-02 13:00:00 16 14 Sudoeste 28 Sudoeste 0 950.6 0.3 34
2018-05-02 12:00:00 15.2 13 Sudoeste 25 Sudoeste 0 950.7 0.7 40
2018-05-02 11:00:00 14.1 6 Oeste 15 Oeste 0 950.7 1.3 37
2018-05-02 10:00:00 11.7 3 Sudoeste 21 Norte 0 950.3 1.1 47
2018-05-02 09:00:00 8.9 8 Noroeste 30 Norte 0 950 0.7 51
2018-05-02 08:00:00 8.4 11 Norte 28 Norte 0 949.4 -0.1 35
2018-05-02 07:00:00 8.3 19 Norte 34 Norte 0 949.2 -0.5 44
2018-05-02 06:00:00 8.5 20 Norte 32 Norte 0 949.3 -0.7 46
2018-05-02 05:00:00 8.6 19 Norte 31 Norte 0 949.5 -0.7 43
2018-05-02 04:00:00 8.2 15 Norte 36 Norte 0 949.7 -0.5 60
2018-05-02 03:00:00 8 24 Norte 41 Norte 0 950 -0.5 68
2018-05-02 02:00:00 8.6 26 Norte 44 Nordeste 0 950.2 0.1 66
2018-05-02 01:00:00 9 29 Norte 40 Norte 0 950.2 0.6 64
2018-05-02 00:00:00 9 5 Oeste 10 Oeste 0 950.5 1.4 74
2018-05-01 23:00:00 9.3 5 Norte 11 Noroeste 0 950.1 0.9 72
2018-05-01 22:00:00 10 3 Noroeste 11 Noroeste 0 949.6 0.6 69
2018-05-01 21:00:00 11.4 7 Noroeste 17 Norte 0 949.1 -0.4 58
2018-05-01 20:00:00 12 8 Norte 26 Nordeste 0 949.2 0.6 57
2018-05-01 19:00:00 13.6 11 Norte 26 Nordeste 0 949 0.4 54
2018-05-01 18:00:00 11.3 16 Nordeste 37 Norte 0 949.5 0.8 65
2018-05-01 17:00:00 12.8 25 Norte 43 Noroeste 0 948.6 -0.2 53
2018-05-01 16:00:00 14.7 18 Norte 37 Noroeste 0 948.6 -0.6 45
2018-05-01 15:00:00 13.9 16 Norte 37 Norte 0 948.7 -0.6 54
2018-05-01 14:00:00 13.8 14 Norte 32 Noroeste 0 948.8 -0.3 55
2018-05-01 13:00:00 13.5 13 Nordeste 29 Nordeste 0 949.2 0.5 57
2018-05-01 12:00:00 10.8 18 Norte 35 Nordeste 0 949.3 1.1 65
2018-05-01 11:00:00 10.2 15 Norte 28 Norte 0 949.1 1 74
2018-05-01 10:00:00 8.3 9 Norte 35 Norte 0 948.7 0.8 82
2018-05-01 09:00:00 7.4 22 Norte 36 Nordeste 0 948.2 0.2 85
2018-05-01 08:00:00 6.2 5 Nordeste 16 Norte 0 948.1 -0.3 91
2018-05-01 07:00:00 7 4 Norte 27 Norte 0 947.9 -0.6 88
2018-05-01 06:00:00 7.4 14 Norte 28 Norte 0 948 -1.3 89
2018-05-01 05:00:00 7.8 15 Norte 31 Norte 0 948.4 -1.2 86
2018-05-01 04:00:00 8.3 23 Norte 35 Norte 0 948.5 -1.5 86
2018-05-01 03:00:00 8.5 20 Norte 32 Norte 0 949.3 -0.5 84
2018-05-01 02:00:00 8.3 14 Norte 24 Norte 0 949.6 0.1 83
2018-05-01 01:00:00 7.6 8 Nordeste 27 Nordeste 0 950 1 83
2018-05-01 00:00:00 8.9 13 Norte 25 Norte 0 949.8 1.3 76
2018-04-30 23:00:00 9.2 9 Noroeste 15 Norte 0 949.5 1.1 63
2018-04-30 22:00:00 8.6 9 Norte 12 Norte 0 949 0.8 73
2018-04-30 21:00:00 10.3 9 Norte 19 Norte 0 948.5 0.4 66
2018-04-30 20:00:00 13.2 11 Norte 24 Norte 0 948.4 -0.2 51
2018-04-30 19:00:00 14.6 11 Norte 25 Noroeste 0 948.2 -0.7 43
2018-04-30 18:00:00 14.5 14 Noroeste 26 Oeste 0 948.1 -1.1 40
2018-04-30 17:00:00 13.7 10 Norte 32 Noroeste 0 948.6 -1.1 49
2018-04-30 16:00:00 11.8 16 Norte 32 Norte 0 948.9 -1.1 65
2018-04-30 15:00:00 12 6 Noroeste 23 Oeste 0 949.2 -0.8 64
2018-04-30 14:00:00 10.7 8 Sudoeste 17 Sudoeste 0 949.7 0 78
2018-04-30 13:00:00 9.9 8 Sudoeste 14 Sudoeste 0.2 950 0.6 87
2018-04-30 12:00:00 8.5 7 Oeste 18 Sudoeste 0.6 950 1 91
2018-04-30 11:00:00 7.9 7 Sudoeste 12 Sudoeste 0.4 949.7 0.8 92
2018-04-30 10:00:00 8.1 5 Oeste 13 Noroeste 0 949.4 1 84
2018-04-30 09:00:00 7.5 6 Oeste 19 Norte 0 949 0.3 81
2018-04-30 08:00:00 5.4 7 Noroeste 22 Noroeste 0 948.9 -0.3 91
2018-04-30 07:00:00 6.1 15 Noroeste 26 Norte 0 948.4 -1 87
2018-04-30 06:00:00 6.1 15 Noroeste 22 Noroeste 0 948.7 -1.2 88
2018-04-30 05:00:00 5.8 14 Noroeste 20 Norte 0 949.2 -1.1 89
2018-04-30 04:00:00 6.2 15 Norte 26 Norte 0 949.4 -1 85
2018-04-30 03:00:00 6.2 12 Noroeste 24 Noroeste 0 949.9 -0.6 87
2018-04-30 02:00:00 6.3 8 Noroeste 22 Norte 0 950.3 -0.2 83
2018-04-30 01:00:00 6.8 9 Norte 19 Norte 0 950.4 0.5 80
2018-04-30 00:00:00 7.3 13 Norte 22 Norte 0 950.5 1.2 75
2018-04-29 23:00:00 7.8 8 Norte 21 Noroeste 0 950.5 1.5 72
2018-04-29 22:00:00 8.3 9 Noroeste 26 Noroeste 0 949.9 1 71
2018-04-29 21:00:00 9.9 12 Noroeste 33 Noroeste 0 949.3 0.4 61
2018-04-29 20:00:00 12 13 Noroeste 32 Noroeste 0 949 0.2 56
2018-04-29 19:00:00 12.4 18 Oeste 42 Oeste 0 948.9 -0.6 58
2018-04-29 18:00:00 11.4 13 Noroeste 38 Oeste 0 948.9 -0.2 74
2018-04-29 17:00:00 12.5 16 Oeste 40 Noroeste 0.4 948.8 -0.7 74
2018-04-29 16:00:00 10.5 18 Oeste 38 Oeste 0.6 949.5 -0.1 81
2018-04-29 15:00:00 14 15 Oeste 42 Oeste 0 949.1 -0.3 59
2018-04-29 14:00:00 11.4 21 Noroeste 38 Noroeste 0.2 949.5 0.7 59
2018-04-29 13:00:00 11.6 17 Oeste 39 Noroeste 0 949.6 1.4 62
2018-04-29 12:00:00 10.6 16 Noroeste 34 Noroeste 0 949.4 1.9 70
2018-04-29 11:00:00 9.7 19 Noroeste 42 Noroeste 0 948.8 2.3 73
2018-04-29 10:00:00 8.2 15 Noroeste 33 Noroeste 0 948.2 2.2 77
2018-04-29 09:00:00 7.3 20 Noroeste 34 Noroeste 0 947.5 2.3 85
2018-04-29 08:00:00 6.6 16 Noroeste 32 Noroeste 0 946.5 1.4 88
2018-04-29 07:00:00 6.4 14 Noroeste 36 Noroeste 0 946 1.2 88
2018-04-29 06:00:00 6.3 17 Noroeste 34 Noroeste 0 945.2 0.4 87
2018-04-29 05:00:00 5.9 17 Noroeste 41 Noroeste 0 945.1 0.3 90
2018-04-29 04:00:00 5.6 12 Noroeste 30 Oeste 0 944.8 -0.1 90
2018-04-29 03:00:00 6.1 14 Oeste 28 Oeste 0 944.8 -0.2 91
2018-04-29 02:00:00 6.5 12 Oeste 25 Oeste 0 944.8 0.2 95
2018-04-29 01:00:00 6.4 12 Oeste 26 Noroeste 0 944.9 0.6 94
2018-04-29 00:00:00 6.8 8 Oeste 24 Oeste 0 945 0.9 94
2018-04-28 23:00:00 7.4 8 Oeste 19 Oeste 0 944.6 0.6 95
2018-04-28 22:00:00 7.8 6 Oeste 26 Oeste 1.4 944.3 -0.3 95
2018-04-28 21:00:00 7.9 14 Oeste 43 Sudoeste 1.8 944.1 -0.6 90
2018-04-28 20:00:00 9.6 8 Sudoeste 26 Sudoeste 0.8 944 -1.2 95
2018-04-28 19:00:00 10.2 14 Sudoeste 35 Sudoeste 0.2 944.6 -1.4 87
2018-04-28 18:00:00 13.1 8 Oeste 22 Oeste 0 944.7 -1.7 54
2018-04-28 17:00:00 14.3 9 Oeste 25 Noroeste 0 945.2 -1.6 48
2018-04-28 16:00:00 13.8 13 Oeste 29 Noroeste 0 946 -1.4 49
2018-04-28 15:00:00 14.5 14 Oeste 31 Noroeste 0 946.4 -1 42
2018-04-28 14:00:00 15 12 Oeste 28 Sudoeste 0 946.8 -0.5 44
2018-04-28 13:00:00 12.1 14 Noroeste 27 Noroeste 0 947.4 0.5 55
2018-04-28 12:00:00 11.3 13 Noroeste 32 Noroeste 0 947.4 1.2 56
2018-04-28 11:00:00 10 18 Norte 43 Noroeste 0 947.3 1.4 60
2018-04-28 10:00:00 9.4 17 Norte 39 Norte 0 946.9 1.1 62
2018-04-28 09:00:00 7.6 20 Norte 48 Nordeste 0 946.2 0.2 72
2018-04-28 08:00:00 7.1 31 Norte 53 Norte 0 945.9 -0.5 66
2018-04-28 07:00:00 7.1 28 Norte 56 Nordeste 0 945.8 -0.7 68
2018-04-28 06:00:00 7.7 36 Norte 56 Norte 0 946 -1 80
2018-04-28 05:00:00 8.8 7 Norte 37 Norte 0 946.4 -1.1 85
2018-04-28 04:00:00 10 25 Norte 35 Norte 0 946.5 -1.5 87
2018-04-28 03:00:00 11.3 16 Norte 33 Norte 0 947 -1.2 87
2018-04-28 02:00:00 11.9 22 Norte 36 Norte 0 947.5 -1 86
2018-04-28 01:00:00 12.5 15 Norte 40 Norte 0 948 -0.2 87
2018-04-28 00:00:00 13.2 24 Norte 37 Noroeste 0 948.2 0.3 84
2018-04-27 23:00:00 14.2 9 Noroeste 29 Noroeste 0 948.5 0.6 77
2018-04-27 22:00:00 15 12 Noroeste 23 Noroeste 0 948.2 0.1 75
2018-04-27 21:00:00 16.9 11 Noroeste 24 Noroeste 0 947.9 -0.3 59
2018-04-27 20:00:00 19.3 9 Noroeste 31 Noroeste 0 947.9 -0.7 45
2018-04-27 19:00:00 20.6 12 Noroeste 32 Noroeste 0 948.1 -1 38
2018-04-27 18:00:00 21.5 12 Noroeste 28 Noroeste 0 948.2 -1 35
2018-04-27 17:00:00 21.1 13 Norte 28 Norte 0 948.6 -0.9 38
2018-04-27 16:00:00 21 12 Norte 31 Noroeste 0 949.1 -0.9 40
2018-04-27 15:00:00 21.7 9 Norte 30 Nordeste 0 949.2 -0.8 33
2018-04-27 14:00:00 20.9 13 Norte 32 Nordeste 0 949.5 -0.3 37
2018-04-27 13:00:00 20.1 13 Nordeste 29 Nordeste 0 950 0.2 35
2018-04-27 12:00:00 20.6 9 Nordeste 20 Nordeste 0 950 0.4 36
2018-04-27 11:00:00 18.3 8 Norte 28 Nordeste 0 949.8 0.4 43
2018-04-27 10:00:00 15.6 4 Sudoeste 10 Sudoeste 0 949.8 0.7 52
2018-04-27 09:00:00 11.8 3 Norte 8 Norte 0 949.6 0.3 93
2018-04-27 08:00:00 11 4 Nordeste 10 Nordeste 0 949.4 -0.4 89
2018-04-27 07:00:00 11.3 6 Nordeste 10 Nordeste 0 949.1 -1 91
2018-04-27 06:00:00 13.3 4 Sudoeste 17 Oeste 0 949.3 -1.5 93
2018-04-27 05:00:00 14.7 4 Oeste 13 Noroeste 0 949.8 -1.6 93
2018-04-27 04:00:00 14.6 4 Sudoeste 8 Sudoeste 0 950.1 -1.7 95
2018-04-27 03:00:00 14.7 4 Sudoeste 11 Oeste 0 950.8 -0.8 93
2018-04-27 02:00:00 14.6 3 Oeste 6 Sudoeste 0 951.4 -0.1 91
2018-04-27 01:00:00 14.8 7 Sudoeste 17 Sudoeste 0 951.8 1 94
2018-04-27 00:00:00 15.6 8 Sudoeste 14 Sudoeste 0 951.6 1.1 91
2018-04-26 23:00:00 16.8 4 Oeste 15 Oeste 0 951.5 1.7 89
2018-04-26 22:00:00 17.8 8 Sudoeste 24 Sudoeste 0 950.8 1.1 86
2018-04-26 21:00:00 20.5 10 Sudoeste 25 Sudoeste 0 950.5 0.7 74
2018-04-26 20:00:00 22.9 13 Oeste 27 Sudoeste 0 949.8 0 59
2018-04-26 19:00:00 24.8 10 Sudoeste 26 Sudoeste 0 949.7 -0.5 54
2018-04-26 18:00:00 24.5 10 Sudoeste 23 Sudoeste 0 949.8 -0.7 51
2018-04-26 17:00:00 25.6 12 Sudoeste 22 Sudoeste 0 949.8 -0.8 45
2018-04-26 16:00:00 25.5 9 Sudeste 21 Sur 0 950.2 -0.5 43
2018-04-26 15:00:00 25.2 8 Sur 23 Sudoeste 0 950.5 0 42
2018-04-26 14:00:00 23.7 8 Sudoeste 19 Sudoeste 0 950.6 0.2 53
2018-04-26 13:00:00 22.6 10 Sur 20 Sudeste 0 950.7 0.7 55
2018-04-26 12:00:00 21 9 Sur 21 Sur 0 950.5 0.6 62
2018-04-26 11:00:00 19.2 5 Sudoeste 15 Sudoeste 0 950.4 1.3 74
2018-04-26 10:00:00 18.1 8 Sudoeste 13 Sudoeste 0 950 1.4 78
2018-04-26 09:00:00 16.4 4 Sur 21 Nordeste 0 949.9 1.4 81
2018-04-26 08:00:00 16.6 11 Nordeste 20 Nordeste 0 949.1 0.2 78
2018-04-26 07:00:00 16.9 9 Este 29 Norte 0 948.6 -0.8 76
2018-04-26 06:00:00 15.5 7 Norte 21 Nordeste 0 948.5 -2 87
2018-04-26 05:00:00 14.8 6 Nordeste 13 Nordeste 0 948.9 -2.3 88
2018-04-26 04:00:00 14.8 9 Noroeste 17 Noroeste 0 949.4 -1.9 86
2018-04-26 03:00:00 14.6 5 Noroeste 8 Sudoeste 0 950.5 0.5 91
2018-04-26 02:00:00 15.7 5 Sur 18 Sur 0 951.2 1.3 86
2018-04-26 01:00:00 17.3 10 Sur 37 Sudeste 0 951.3 1.4 87
2018-04-26 00:00:00 19.6 10 Noroeste 24 Norte 0 950 0.6 72
2018-04-25 23:00:00 17.8 5 Noroeste 20 Noroeste 0 949.9 1.4 82
2018-04-25 22:00:00 18.6 7 Oeste 13 Oeste 0 949.9 1.5 87
2018-04-25 21:00:00 20.3 8 Sudoeste 20 Sudoeste 0 949.4 1.1 81
2018-04-25 20:00:00 24.1 10 Oeste 20 Norte 0 948.5 -0.1 65
2018-04-25 19:00:00 26.2 9 Nordeste 27 Norte 0 948.4 -0.5 33
2018-04-25 18:00:00 25.8 11 Nordeste 27 Este 0 948.3 -0.5 35
2018-04-25 17:00:00 26.4 11 Nordeste 31 Nordeste 0 948.6 -0.4 37
2018-04-25 16:00:00 26.1 13 Este 30 Nordeste 0 948.9 -0.5 36
2018-04-25 15:00:00 26.1 13 Este 29 Norte 0 948.8 -0.7 39
2018-04-25 14:00:00 25.3 15 Este 31 Este 0 949 -0.8 39
2018-04-25 13:00:00 24.9 10 Sudeste 27 Nordeste 0 949.4 0.4 38
2018-04-25 12:00:00 23.4 9 Sudoeste 13 Sudoeste 0 949.5 0.6 56
2018-04-25 11:00:00 21.1 6 Sur 14 Sudeste 0 949.8 1.5 61
2018-04-25 10:00:00 20 2 Sudeste 8 Nordeste 0 949 1.1 64
2018-04-25 09:00:00 16.1 5 Nordeste 8 Nordeste 0 948.9 1 73
2018-04-25 08:00:00 14.1 3 Oeste 11 Nordeste 0 948.3 0.2 73
2018-04-25 07:00:00 14.2 6 Nordeste 12 Nordeste 0 947.9 0.3 74
2018-04-25 06:00:00 14.7 5 Nordeste 10 Nordeste 0 947.9 0.4 71
2018-04-25 05:00:00 15.3 6 Norte 13 Sudeste 0 948.1 -0.1 69
2018-04-25 04:00:00 17.2 8 Sudeste 35 Nordeste 0 947.6 -0.9 66
2018-04-25 03:00:00 19 24 Norte 32 Norte 0 947.5 -1 48
2018-04-25 02:00:00 18 20 Nordeste 28 Nordeste 0 948.2 0.2 53
2018-04-25 01:00:00 17.3 4 Norte 20 Sudeste 0 948.5 0.6 58
2018-04-25 00:00:00 18.9 15 Norte 41 Norte 0 948.5 0.8 53
2018-04-24 23:00:00 18.7 27 Norte 41 Norte 0 948 0.3 65
2018-04-24 22:00:00 18.6 19 Norte 31 Norte 0 947.9 0 71
2018-04-24 21:00:00 18.8 5 Oeste 21 Noroeste 0 947.7 0.3 77
2018-04-24 20:00:00 20.2 10 Oeste 18 Oeste 0 947.7 0.1 72
2018-04-24 19:00:00 21.5 7 Oeste 20 Oeste 0 947.9 0 67
2018-04-24 18:00:00 22.6 11 Sudoeste 19 Sudoeste 0 947.4 -0.8 64
2018-04-24 17:00:00 23 9 Oeste 18 Oeste 0 947.6 -0.7 62
2018-04-24 16:00:00 22.1 10 Sudoeste 17 Sudoeste 0 947.9 -0.5 62
2018-04-24 15:00:00 21.9 6 Oeste 15 Sur 0 948.2 0.2 61
2018-04-24 14:00:00 21.2 11 Sudoeste 17 Sur 0 948.3 0.4 65
2018-04-24 13:00:00 21.4 6 Sudoeste 16 Sur 0 948.4 1.4 60
2018-04-24 12:00:00 20.5 6 Sur 14 Sudeste 0 948 1.3 57
2018-04-24 11:00:00 18.8 8 Sudeste 19 Sur 0 947.9 1.3 65
2018-04-24 10:00:00 19.4 15 Nordeste 35 Norte 0 947 0 50
2018-04-24 09:00:00 16.2 4 Nordeste 27 Nordeste 0 946.7 0.3 74
2018-04-24 08:00:00 18.2 15 Nordeste 37 Nordeste 0 946.6 0.2 51
2018-04-24 07:00:00 18.9 8 Sudeste 15 Sudeste 0 947 0.3 49
2018-04-24 06:00:00 20 9 Este 19 Sudeste 0 946.4 -0.5 44
2018-04-24 05:00:00 20.1 9 Este 24 Nordeste 0 946.4 0.2 43
2018-04-24 04:00:00 18.5 8 Este 15 Este 0 946.7 0.4 54
2018-04-24 03:00:00 19.4 5 Este 33 Nordeste 0 946.9 -0.6 53
2018-04-24 02:00:00 19.9 26 Nordeste 44 Nordeste 0 946.2 -0.8 53
2018-04-24 01:00:00 19.6 25 Nordeste 41 Nordeste 0 946.3 -0.1 58
2018-04-24 00:00:00 20.9 23 Nordeste 40 Nordeste 0 947.5 1.7 52